createdAt,value
2022-11-08T00:02:29.603Z,10.99
2022-11-08T00:04:58.476Z,10.98
2022-11-08T00:07:44.882Z,10.97
2022-11-08T00:10:31.208Z,10.44
2022-11-08T00:13:17.550Z,10.75
2022-11-08T00:15:48.749Z,10.18
2022-11-08T00:18:19.281Z,9.86
2022-11-08T00:20:49.023Z,10.22
2022-11-08T00:23:20.318Z,10.29
2022-11-08T00:26:04.441Z,11.11
2022-11-08T00:28:34.022Z,10.28
2022-11-08T00:31:07.501Z,10.68
2022-11-08T00:33:37.770Z,10.72
2022-11-08T00:36:08.779Z,11.09
2022-11-08T00:38:37.908Z,10.84
2022-11-08T00:41:07.103Z,11.23
2022-11-08T00:43:35.854Z,10.74
2022-11-08T00:46:04.559Z,11.00
2022-11-08T00:48:34.573Z,10.79
2022-11-08T00:51:06.347Z,10.62
2022-11-08T00:53:39.148Z,10.82
2022-11-08T00:56:11.929Z,11.18
2022-11-08T00:58:42.412Z,11.12
2022-11-08T01:01:13.952Z,11.28
2022-11-08T01:03:43.872Z,11.46
2022-11-08T01:06:16.381Z,11.30
2022-11-08T01:08:48.460Z,11.10
2022-11-08T01:11:20.010Z,11.32
2022-11-08T01:13:49.657Z,11.40
2022-11-08T01:16:21.358Z,11.07
2022-11-08T01:18:52.450Z,10.97
2022-11-08T01:21:23.230Z,11.07
2022-11-08T01:23:52.262Z,11.32
2022-11-08T01:26:23.957Z,11.62
2022-11-08T01:28:52.771Z,11.39
2022-11-08T01:31:23.511Z,10.89
2022-11-08T01:33:52.501Z,10.76
2022-11-08T01:36:26.700Z,10.78
2022-11-08T01:38:57.690Z,11.32
2022-11-08T01:41:27.889Z,11.50
2022-11-08T01:43:58.412Z,11.56
2022-11-08T01:46:36.624Z,11.50
2022-11-08T01:49:44.520Z,11.58
2022-11-08T01:52:26.251Z,11.71
2022-11-08T01:55:12.847Z,11.82
2022-11-08T01:57:48.229Z,11.61
2022-11-08T02:00:17.981Z,11.69
2022-11-08T02:02:51.229Z,11.91
2022-11-08T02:05:26.969Z,11.62
2022-11-08T02:08:03.240Z,11.88
2022-11-08T02:10:37.215Z,12.07
2022-11-08T02:13:13.311Z,11.99
2022-11-08T02:15:43.224Z,12.10
2022-11-08T02:18:12.205Z,12.73
2022-11-08T02:20:45.097Z,12.43
2022-11-08T02:23:25.072Z,12.49
2022-11-08T02:25:55.144Z,12.22
2022-11-08T02:28:23.678Z,12.49
2022-11-08T02:30:52.061Z,12.55
2022-11-08T02:33:23.498Z,11.89
2022-11-08T02:35:56.366Z,12.64
2022-11-08T02:38:27.320Z,12.60
2022-11-08T02:40:58.816Z,12.77
2022-11-08T02:43:27.720Z,12.50
2022-11-08T02:45:55.961Z,12.60
2022-11-08T02:48:24.385Z,12.88
2022-11-08T02:50:54.154Z,12.11
2022-11-08T02:53:22.757Z,12.18
2022-11-08T02:55:51.819Z,12.29
2022-11-08T02:58:23.597Z,12.28
2022-11-08T03:00:52.022Z,12.05
2022-11-08T03:03:23.608Z,12.14
2022-11-08T03:05:51.991Z,11.75
2022-11-08T03:08:20.713Z,11.26
2022-11-08T03:10:50.572Z,11.74
2022-11-08T03:13:18.983Z,11.88
2022-11-08T03:15:48.900Z,12.27
2022-11-08T03:18:18.738Z,11.99
2022-11-08T03:20:48.487Z,11.40
2022-11-08T03:23:16.800Z,11.10
2022-11-08T03:25:45.179Z,11.77
2022-11-08T03:28:13.602Z,12.05
2022-11-08T03:30:41.905Z,12.00
2022-11-08T03:33:11.829Z,11.58
2022-11-08T03:35:40.112Z,11.91
2022-11-08T03:38:08.404Z,12.25
2022-11-08T03:40:36.702Z,12.22
2022-11-08T03:43:07.170Z,12.31
2022-11-08T03:45:35.475Z,12.18
2022-11-08T03:48:03.783Z,12.44
2022-11-08T03:50:34.043Z,12.38
2022-11-08T03:53:02.389Z,12.48
2022-11-08T03:55:32.176Z,12.85
2022-11-08T03:58:00.616Z,12.27
2022-11-08T04:00:30.746Z,12.36
2022-11-08T04:03:03.974Z,12.69
2022-11-08T04:05:34.380Z,12.93
2022-11-08T04:08:04.119Z,13.02
2022-11-08T04:10:32.574Z,13.34
2022-11-08T04:13:18.903Z,13.56
2022-11-08T04:15:48.214Z,13.22
2022-11-08T04:18:34.283Z,13.28
2022-11-08T04:21:22.406Z,13.02
2022-11-08T04:23:53.426Z,13.04
2022-11-08T04:26:23.594Z,13.04
2022-11-08T04:28:52.002Z,12.90
2022-11-08T04:31:22.471Z,12.62
2022-11-08T04:33:50.797Z,12.05
2022-11-08T04:36:20.535Z,12.27
2022-11-08T04:38:50.899Z,12.70
2022-11-08T04:41:21.749Z,12.24
2022-11-08T04:43:51.115Z,12.48
2022-11-08T04:46:22.435Z,12.93
2022-11-08T04:48:54.406Z,12.80
2022-11-08T04:51:27.822Z,12.83
2022-11-08T04:53:57.590Z,12.48
2022-11-08T04:56:27.471Z,12.45
2022-11-08T04:58:58.489Z,12.60
2022-11-08T05:01:30.133Z,12.46
2022-11-08T05:03:59.389Z,12.58
2022-11-08T05:06:32.766Z,12.27
2022-11-08T05:09:02.048Z,12.19
2022-11-08T05:11:31.939Z,12.71
2022-11-08T05:14:01.517Z,12.72
2022-11-08T05:16:32.623Z,12.59
2022-11-08T05:19:01.693Z,12.86
2022-11-08T05:21:50.683Z,12.65
2022-11-08T05:24:19.820Z,13.24
2022-11-08T05:26:51.523Z,13.44
2022-11-08T05:29:19.855Z,13.15
2022-11-08T05:31:48.119Z,12.91
2022-11-08T05:34:16.435Z,12.57
2022-11-08T05:36:46.288Z,12.77
2022-11-08T05:39:14.679Z,12.39
2022-11-08T05:41:42.979Z,12.75
2022-11-08T05:44:11.272Z,12.92
2022-11-08T05:46:39.670Z,13.01
2022-11-08T05:49:08.003Z,12.86
2022-11-08T05:51:36.857Z,13.20
2022-11-08T05:54:09.316Z,13.01
2022-11-08T05:56:37.743Z,12.56
2022-11-08T05:59:06.523Z,12.38
2022-11-08T06:01:35.485Z,12.87
2022-11-08T06:04:04.052Z,12.67
2022-11-08T06:06:32.525Z,12.48
2022-11-08T06:09:01.461Z,12.22
2022-11-08T06:11:31.155Z,12.62
2022-11-08T06:13:59.587Z,12.27
2022-11-08T06:16:28.131Z,12.27
2022-11-08T06:18:56.662Z,12.44
2022-11-08T06:21:27.277Z,12.18
2022-11-08T06:23:56.640Z,12.19
2022-11-08T06:26:25.685Z,11.41
2022-11-08T06:28:55.645Z,12.00
2022-11-08T06:31:24.119Z,12.11
2022-11-08T06:33:52.608Z,11.89
2022-11-08T06:36:21.610Z,11.45
2022-11-08T06:38:55.034Z,12.23
2022-11-08T06:41:24.494Z,11.99
2022-11-08T06:43:56.129Z,12.27
2022-11-08T06:46:24.480Z,12.34
2022-11-08T06:48:53.148Z,12.42
2022-11-08T06:51:21.615Z,12.14
2022-11-08T06:53:49.980Z,12.57
2022-11-08T06:56:18.313Z,12.49
2022-11-08T06:58:46.807Z,12.64
2022-11-08T07:01:16.477Z,12.76
2022-11-08T07:03:44.872Z,12.28
2022-11-08T07:06:13.545Z,12.99
2022-11-08T07:08:41.888Z,13.06
2022-11-08T07:11:10.967Z,12.93
2022-11-08T07:13:39.438Z,12.87
2022-11-08T07:16:08.329Z,12.54
2022-11-08T07:18:38.414Z,12.79
2022-11-08T07:21:07.285Z,12.92
2022-11-08T07:23:35.827Z,12.75
2022-11-08T07:26:08.478Z,12.68
2022-11-08T07:28:37.184Z,12.98
2022-11-08T07:31:07.288Z,12.52
2022-11-08T07:33:37.326Z,12.63
2022-11-08T07:36:06.423Z,12.76
2022-11-08T07:38:34.846Z,12.84
2022-11-08T07:41:03.636Z,13.05
2022-11-08T07:43:33.101Z,12.93
2022-11-08T07:46:02.885Z,13.05
2022-11-08T07:48:32.644Z,13.06
2022-11-08T07:51:02.308Z,12.92
2022-11-08T07:53:31.283Z,13.29
2022-11-08T07:55:59.770Z,13.81
2022-11-08T07:58:28.073Z,13.71
2022-11-08T08:01:03.423Z,13.05
2022-11-08T08:03:32.097Z,13.56
2022-11-08T08:06:02.187Z,13.25
2022-11-08T08:08:31.159Z,13.44
2022-11-08T08:11:02.264Z,13.36
2022-11-08T08:13:30.938Z,13.82
2022-11-08T08:16:07.096Z,14.88
2022-11-08T08:18:51.160Z,14.99
2022-11-08T08:21:24.727Z,14.65
2022-11-08T08:23:53.257Z,14.40
2022-11-08T08:26:21.776Z,13.55
2022-11-08T08:28:50.334Z,13.95
2022-11-08T08:31:19.885Z,13.51
2022-11-08T08:33:49.281Z,13.71
2022-11-08T08:36:17.766Z,13.43
2022-11-08T08:38:47.422Z,14.21
2022-11-08T08:41:15.742Z,14.30
2022-11-08T08:43:44.134Z,14.37
2022-11-08T08:46:13.621Z,14.18
2022-11-08T08:48:41.872Z,14.25
2022-11-08T08:51:10.365Z,14.99
2022-11-08T08:53:38.643Z,14.80
2022-11-08T08:56:09.617Z,14.00
2022-11-08T08:58:38.770Z,14.37
2022-11-08T09:03:58.284Z,14.25
2022-11-08T09:06:26.896Z,15.12
2022-11-08T09:08:55.233Z,15.18
2022-11-08T09:11:24.965Z,15.00
2022-11-08T09:13:53.304Z,14.63
2022-11-08T09:16:21.573Z,14.33
2022-11-08T09:18:50.032Z,14.57
2022-11-08T09:21:18.504Z,14.91
2022-11-08T09:23:46.899Z,15.25
2022-11-08T09:26:15.246Z,14.15
2022-11-08T09:28:44.980Z,15.29
2022-11-08T09:31:14.151Z,14.73
2022-11-08T09:33:44.056Z,15.51
2022-11-08T09:36:15.182Z,16.34
2022-11-08T09:38:43.517Z,15.81
2022-11-08T09:41:46.656Z,16.39
2022-11-08T09:44:52.332Z,16.45
2022-11-08T09:47:25.722Z,15.80
2022-11-08T09:50:04.607Z,16.19
2022-11-08T09:52:35.381Z,16.06
2022-11-08T09:55:20.766Z,17.08
2022-11-08T09:58:05.277Z,17.78
2022-11-08T10:00:38.900Z,17.76
2022-11-08T10:03:13.709Z,18.43
2022-11-08T10:05:46.197Z,18.09
2022-11-08T10:08:28.681Z,17.92
2022-11-08T10:11:18.346Z,18.24
2022-11-08T10:14:03.687Z,18.34
2022-11-08T10:16:42.278Z,18.71
2022-11-08T10:19:48.114Z,17.87
2022-11-08T10:22:27.529Z,17.80
2022-11-08T10:25:00.766Z,18.80
2022-11-08T10:27:38.815Z,18.12
2022-11-08T10:30:15.639Z,18.50
2022-11-08T10:32:45.547Z,18.45
2022-11-08T10:35:24.470Z,18.03
2022-11-08T10:37:56.447Z,19.20
2022-11-08T10:40:38.660Z,19.76
2022-11-08T10:43:11.833Z,19.13
2022-11-08T10:45:40.181Z,19.00
2022-11-08T10:48:12.679Z,18.94
2022-11-08T10:50:46.776Z,18.57
2022-11-08T10:53:21.869Z,17.67
2022-11-08T10:55:53.986Z,17.91
2022-11-08T10:58:39.805Z,18.27
2022-11-08T11:01:16.759Z,18.11
2022-11-08T11:03:47.921Z,18.90
2022-11-08T11:06:27.382Z,19.02
2022-11-08T11:08:58.312Z,19.21
2022-11-08T11:11:37.161Z,18.67
2022-11-08T11:14:16.514Z,19.07
2022-11-08T11:16:58.452Z,18.04
2022-11-08T11:19:29.234Z,18.34
2022-11-08T11:22:03.389Z,18.98
2022-11-08T11:24:32.929Z,18.69
2022-11-08T11:27:05.612Z,18.78
2022-11-08T11:29:35.480Z,19.20
2022-11-08T11:32:24.631Z,18.95
2022-11-08T11:34:59.728Z,19.92
2022-11-08T11:37:40.110Z,19.94
2022-11-08T11:40:17.745Z,19.27
2022-11-08T11:42:58.168Z,19.98
2022-11-08T11:45:32.246Z,20.16
2022-11-08T11:48:06.070Z,20.11
2022-11-08T11:50:38.138Z,20.04
2022-11-08T11:53:14.070Z,19.74
2022-11-08T11:55:56.456Z,20.66
2022-11-08T11:59:27.660Z,21.50
2022-11-08T12:03:04.869Z,20.98
2022-11-08T12:05:48.842Z,20.53
2022-11-08T12:08:34.745Z,20.98
2022-11-08T12:11:24.700Z,22.47
2022-11-08T12:14:11.958Z,21.36
2022-11-08T12:16:49.465Z,22.29
2022-11-08T12:19:41.704Z,20.65
2022-11-08T12:22:34.634Z,22.38
2022-11-08T12:25:12.408Z,21.59
2022-11-08T12:28:00.072Z,21.48
2022-11-08T12:30:44.793Z,21.90
2022-11-08T12:33:32.493Z,22.51
2022-11-08T12:36:19.972Z,22.46
2022-11-08T12:39:04.084Z,22.90
2022-11-08T12:41:40.341Z,22.19
2022-11-08T12:44:45.010Z,21.32
2022-11-08T12:47:23.588Z,21.49
2022-11-08T12:50:06.580Z,21.49
2022-11-08T12:52:49.307Z,21.79
2022-11-08T12:55:28.131Z,21.69
2022-11-08T12:58:00.773Z,22.58
2022-11-08T13:00:31.318Z,21.58
2022-11-08T13:03:24.043Z,21.80
2022-11-08T13:06:01.597Z,22.43
2022-11-08T13:08:39.721Z,21.41
2022-11-08T13:11:18.657Z,21.68
2022-11-08T13:13:53.032Z,21.57
2022-11-08T13:16:23.685Z,21.68
2022-11-08T13:18:54.705Z,21.32
2022-11-08T13:21:42.008Z,20.16
2022-11-08T13:24:44.555Z,19.97
2022-11-08T13:27:35.650Z,20.43
2022-11-08T13:30:30.326Z,20.63
2022-11-08T13:33:09.681Z,20.92
2022-11-08T13:35:48.057Z,20.89
2022-11-08T13:38:30.612Z,20.48
2022-11-08T13:41:17.792Z,20.25
2022-11-08T13:43:48.513Z,19.83
2022-11-08T13:46:49.080Z,20.43
2022-11-08T13:49:24.196Z,20.99
2022-11-08T13:52:31.382Z,19.95
2022-11-08T13:55:01.240Z,19.90
2022-11-08T13:57:59.487Z,20.36
2022-11-08T14:00:45.875Z,20.66
2022-11-08T14:03:54.498Z,20.94
2022-11-08T14:06:32.074Z,21.68
2022-11-08T14:09:15.444Z,22.29
2022-11-08T14:11:57.265Z,20.99
2022-11-08T14:14:44.207Z,21.24
2022-11-08T14:17:31.257Z,20.73
2022-11-08T14:20:18.705Z,20.67
2022-11-08T14:22:50.399Z,20.49
2022-11-08T14:25:31.765Z,20.40
2022-11-08T14:28:04.039Z,20.80
2022-11-08T14:30:33.617Z,20.29
2022-11-08T14:33:16.810Z,21.36
2022-11-08T14:35:53.923Z,21.02
2022-11-08T14:38:22.429Z,20.50
2022-11-08T14:40:54.053Z,20.04
2022-11-08T14:43:24.483Z,19.93
2022-11-08T14:45:53.636Z,20.28
2022-11-08T14:48:29.256Z,20.18
2022-11-08T14:51:01.376Z,20.62
2022-11-08T14:53:33.250Z,20.66
2022-11-08T14:56:16.955Z,20.45
2022-11-08T14:58:48.088Z,20.13
2022-11-08T15:01:20.466Z,19.21
2022-11-08T15:03:54.312Z,19.36
2022-11-08T15:06:24.428Z,19.45
2022-11-08T15:08:55.115Z,18.70
2022-11-08T15:11:29.686Z,18.86
2022-11-08T15:14:02.951Z,18.94
2022-11-08T15:16:41.602Z,19.19
2022-11-08T15:19:29.494Z,19.38
2022-11-08T15:21:58.936Z,19.53
2022-11-08T15:24:37.904Z,19.28
2022-11-08T15:27:17.681Z,19.10
2022-11-08T15:29:59.401Z,19.05
2022-11-08T15:32:28.696Z,18.79
2022-11-08T15:34:58.743Z,18.94
2022-11-08T15:37:35.487Z,18.67
2022-11-08T15:40:06.581Z,18.07
2022-11-08T15:42:41.753Z,18.26
2022-11-08T15:45:26.351Z,18.16
2022-11-08T15:48:02.738Z,18.25
2022-11-08T15:50:36.556Z,18.22
2022-11-08T15:53:07.364Z,17.89
2022-11-08T15:55:40.084Z,17.74
2022-11-08T15:58:16.458Z,17.60
2022-11-08T16:00:49.487Z,17.32
2022-11-08T16:03:18.114Z,16.97
2022-11-08T16:05:46.719Z,17.21
2022-11-08T16:08:20.272Z,17.03
2022-11-08T16:10:52.887Z,16.74
2022-11-08T16:13:28.423Z,16.37
2022-11-08T16:16:00.116Z,16.23
2022-11-08T16:18:32.321Z,16.25
2022-11-08T16:21:00.820Z,15.96
2022-11-08T16:23:29.723Z,15.43
2022-11-08T16:26:00.898Z,15.02
2022-11-08T16:28:34.278Z,15.28
2022-11-08T16:31:05.481Z,15.68
2022-11-08T16:33:35.912Z,15.67
2022-11-08T16:36:12.646Z,15.88
2022-11-08T16:38:41.297Z,16.19
2022-11-08T16:41:10.610Z,15.83
2022-11-08T16:43:40.047Z,15.71
2022-11-08T16:46:10.276Z,14.90
2022-11-08T16:48:41.493Z,15.40
2022-11-08T16:51:18.996Z,15.07
2022-11-08T16:53:51.760Z,15.30
2022-11-08T16:56:20.630Z,15.39
2022-11-08T16:58:49.079Z,15.32
2022-11-08T17:01:22.185Z,15.31
2022-11-08T17:03:50.876Z,14.75
2022-11-08T17:06:21.509Z,15.23
2022-11-08T17:08:49.947Z,14.94
2022-11-08T17:11:26.449Z,15.30
2022-11-08T17:14:00.718Z,15.29
2022-11-08T17:16:31.180Z,15.20
2022-11-08T17:19:01.158Z,15.09
2022-11-08T17:21:44.383Z,15.00
2022-11-08T17:24:20.977Z,15.45
2022-11-08T17:26:51.224Z,15.64
2022-11-08T17:29:20.109Z,15.30
2022-11-08T17:31:50.232Z,14.98
2022-11-08T17:34:18.940Z,15.24
2022-11-08T17:36:48.506Z,15.60
2022-11-08T17:39:17.041Z,15.74
2022-11-08T17:41:45.801Z,15.52
2022-11-08T17:44:14.773Z,15.64
2022-11-08T17:46:43.725Z,15.23
2022-11-08T17:49:13.448Z,15.32
2022-11-08T17:51:42.244Z,15.13
2022-11-08T17:54:10.943Z,14.70
2022-11-08T17:56:39.549Z,14.92
2022-11-08T17:59:08.569Z,14.87
2022-11-08T18:01:36.956Z,15.01
2022-11-08T18:04:05.923Z,14.94
2022-11-08T18:06:36.624Z,15.07
2022-11-08T18:09:05.012Z,15.01
2022-11-08T18:11:33.384Z,15.24
2022-11-08T18:14:02.220Z,14.86
2022-11-08T18:16:30.601Z,14.50
2022-11-08T18:18:59.328Z,15.06
2022-11-08T18:21:27.726Z,14.72
2022-11-08T18:23:59.805Z,15.16
2022-11-08T18:26:28.791Z,15.39
2022-11-08T18:28:57.284Z,15.46
2022-11-08T18:31:26.708Z,15.47
2022-11-08T18:33:55.107Z,15.34
2022-11-08T18:36:26.265Z,15.31
2022-11-08T18:38:57.866Z,15.72
2022-11-08T18:41:29.558Z,15.62
2022-11-08T18:43:59.770Z,15.65
2022-11-08T18:46:40.275Z,15.43
2022-11-08T18:49:12.047Z,15.18
2022-11-08T18:51:40.534Z,15.18
2022-11-08T18:54:10.474Z,14.98
2022-11-08T18:56:38.806Z,14.94
2022-11-08T18:59:09.115Z,14.81
2022-11-08T19:01:37.928Z,14.78
2022-11-08T19:04:06.568Z,14.07
2022-11-08T19:06:35.748Z,14.05
2022-11-08T19:09:04.282Z,13.88
2022-11-08T19:11:34.018Z,14.00
2022-11-08T19:14:02.762Z,14.20
2022-11-08T19:16:31.549Z,14.27
2022-11-08T19:18:59.869Z,14.44
2022-11-08T19:21:29.603Z,14.85
2022-11-08T19:24:00.693Z,14.76
2022-11-08T19:26:30.105Z,14.64
2022-11-08T19:29:01.212Z,14.52
2022-11-08T19:31:29.613Z,14.31
2022-11-08T19:33:58.814Z,13.99
2022-11-08T19:36:30.038Z,14.25
2022-11-08T19:38:59.847Z,14.12
2022-11-08T19:41:30.051Z,13.55
2022-11-08T19:43:59.935Z,13.60
2022-11-08T19:46:30.989Z,13.66
2022-11-08T19:49:02.643Z,13.80
2022-11-08T19:51:33.311Z,14.03
2022-11-08T19:54:04.927Z,13.72
2022-11-08T19:57:02.704Z,13.44
2022-11-08T19:59:24.326Z,13.94
2022-11-08T20:01:52.809Z,14.03
2022-11-08T20:04:21.217Z,14.02
2022-11-08T20:06:49.904Z,13.89
2022-11-08T20:09:18.335Z,14.17
2022-11-08T20:11:46.711Z,13.74
2022-11-08T20:14:16.549Z,13.67
2022-11-08T20:16:53.017Z,13.96
2022-11-08T20:19:22.322Z,13.81
2022-11-08T20:21:50.885Z,13.46
2022-11-08T20:24:19.741Z,13.55
2022-11-08T20:26:48.280Z,14.01
2022-11-08T20:29:17.259Z,14.20
2022-11-08T20:31:48.119Z,13.76
2022-11-08T20:34:18.775Z,13.88
2022-11-08T20:36:47.307Z,14.06
2022-11-08T20:39:17.040Z,14.11
2022-11-08T20:41:45.947Z,13.81
2022-11-08T20:44:14.823Z,14.07
2022-11-08T20:46:52.788Z,13.92
2022-11-08T20:49:29.346Z,14.18
2022-11-08T20:51:58.522Z,13.95
2022-11-08T20:54:27.096Z,14.25
2022-11-08T20:56:55.868Z,14.30
2022-11-08T20:59:24.498Z,14.33
2022-11-08T21:01:53.186Z,14.04
2022-11-08T21:04:23.404Z,13.73
2022-11-08T21:07:33.388Z,13.84
2022-11-08T21:09:49.744Z,13.57
2022-11-08T21:12:19.744Z,13.10
2022-11-08T21:14:48.421Z,13.74
2022-11-08T21:17:22.202Z,13.71
2022-11-08T21:19:53.262Z,13.50
2022-11-08T21:22:21.720Z,13.27
2022-11-08T21:24:50.090Z,13.30
2022-11-08T21:27:18.763Z,13.03
2022-11-08T21:29:47.124Z,13.49
2022-11-08T21:32:16.308Z,13.42
2022-11-08T21:34:48.245Z,13.67
2022-11-08T21:37:18.226Z,13.23
2022-11-08T21:39:46.465Z,12.89
2022-11-08T21:42:15.776Z,13.01
2022-11-08T21:44:44.312Z,13.88
2022-11-08T21:47:12.746Z,13.71
2022-11-08T21:49:41.097Z,13.48
2022-11-08T21:52:09.878Z,13.63
2022-11-08T21:54:41.065Z,13.80
2022-11-08T21:57:09.402Z,13.16
2022-11-08T21:59:37.743Z,13.41
2022-11-08T22:02:07.494Z,13.51
2022-11-08T22:04:35.864Z,13.63
2022-11-08T22:07:04.314Z,13.90
2022-11-08T22:09:32.757Z,14.34
2022-11-08T22:12:03.012Z,14.04
2022-11-08T22:14:31.879Z,14.06
2022-11-08T22:17:00.906Z,14.30
2022-11-08T22:19:29.505Z,14.33
2022-11-08T22:21:58.366Z,14.21
2022-11-08T22:24:26.922Z,13.87
2022-11-08T22:26:55.385Z,13.85
2022-11-08T22:29:27.714Z,14.11
2022-11-08T22:31:57.558Z,14.05
2022-11-08T22:34:27.229Z,14.15
2022-11-08T22:36:55.824Z,13.98
2022-11-08T22:39:26.309Z,14.34
2022-11-08T22:41:56.306Z,14.38
2022-11-08T22:44:28.518Z,14.11
2022-11-08T22:47:00.639Z,14.15
2022-11-08T22:49:29.689Z,13.90
2022-11-08T22:51:58.268Z,14.03
2022-11-08T22:54:26.902Z,13.98
2022-11-08T22:56:55.481Z,13.88
2022-11-08T22:59:23.798Z,14.03
2022-11-08T23:01:54.011Z,13.59
2022-11-08T23:04:22.413Z,13.21
2022-11-08T23:06:51.639Z,13.60
2022-11-08T23:09:20.484Z,13.68
2022-11-08T23:12:07.127Z,13.50
2022-11-08T23:14:52.858Z,13.63
2022-11-08T23:17:23.349Z,13.75
2022-11-08T23:20:09.048Z,13.82
2022-11-08T23:22:57.058Z,14.02
2022-11-08T23:25:26.930Z,14.02
2022-11-08T23:28:13.799Z,13.87
2022-11-08T23:30:59.373Z,13.46
2022-11-08T23:33:29.439Z,13.60
2022-11-08T23:36:15.843Z,13.53
2022-11-08T23:38:44.803Z,13.52
2022-11-08T23:41:30.764Z,13.67
2022-11-08T23:44:28.453Z,13.52
2022-11-08T23:46:59.885Z,13.27
2022-11-08T23:49:30.129Z,13.01
2022-11-08T23:51:58.535Z,12.75
2022-11-08T23:54:26.978Z,12.78
2022-11-08T23:56:55.291Z,13.31
2022-11-08T23:59:30.650Z,13.05
